createdAt,value
2023-10-03T00:01:07.713Z,42.83
2023-10-03T00:03:34.766Z,44.28
2023-10-03T00:06:02.042Z,44.55
2023-10-03T00:08:28.829Z,43.58
2023-10-03T00:10:55.420Z,42.45
2023-10-03T00:13:22.548Z,42.67
2023-10-03T00:15:49.709Z,45.35
2023-10-03T00:18:17.213Z,39.28
2023-10-03T00:20:44.571Z,41.42
2023-10-03T00:23:11.620Z,46.13
2023-10-03T00:25:39.729Z,41.92
2023-10-03T00:28:07.505Z,43.58
2023-10-03T00:30:37.432Z,44.17
2023-10-03T00:33:06.314Z,40.20
2023-10-03T00:35:33.648Z,42.00
2023-10-03T00:38:01.718Z,41.90
2023-10-03T00:40:29.217Z,37.63
2023-10-03T00:43:00.288Z,44.35
2023-10-03T00:45:27.948Z,44.97
2023-10-03T00:47:56.371Z,37.85
2023-10-03T00:50:24.866Z,42.78
2023-10-03T00:53:06.040Z,39.67
2023-10-03T00:55:34.741Z,43.80
2023-10-03T00:58:19.249Z,37.35
2023-10-03T01:00:50.801Z,39.75
2023-10-03T01:03:38.958Z,36.88
2023-10-03T01:06:10.355Z,41.10
2023-10-03T01:08:44.581Z,39.80
2023-10-03T01:11:18.867Z,39.63
2023-10-03T01:13:48.764Z,39.08
2023-10-03T01:16:35.997Z,38.95
2023-10-03T01:19:13.697Z,39.80
2023-10-03T01:21:43.195Z,37.55
2023-10-03T01:24:10.685Z,39.35
2023-10-03T01:26:37.344Z,37.05
2023-10-03T01:29:04.530Z,35.45
2023-10-03T01:31:31.813Z,34.97
2023-10-03T01:33:58.491Z,41.17
2023-10-03T01:36:28.044Z,36.70
2023-10-03T01:38:54.670Z,44.30
2023-10-03T01:41:21.323Z,38.28
2023-10-03T01:43:48.007Z,40.25
2023-10-03T01:46:14.953Z,32.75
2023-10-03T01:48:42.878Z,37.70
2023-10-03T01:51:10.516Z,41.05
2023-10-03T01:53:41.328Z,36.95
2023-10-03T01:56:08.293Z,36.42
2023-10-03T01:58:35.465Z,36.60
2023-10-03T02:01:02.484Z,39.75
2023-10-03T02:03:30.885Z,33.40
2023-10-03T02:05:57.938Z,34.88
2023-10-03T02:08:26.765Z,34.50
2023-10-03T02:10:54.553Z,36.95
2023-10-03T02:13:24.711Z,40.28
2023-10-03T02:15:54.289Z,39.42
2023-10-03T02:18:22.449Z,36.03
2023-10-03T02:20:54.713Z,37.30
2023-10-03T02:23:25.780Z,32.00
2023-10-03T02:26:19.177Z,34.67
2023-10-03T02:28:46.215Z,41.08
2023-10-03T02:31:12.890Z,36.80
2023-10-03T02:33:42.879Z,40.40
2023-10-03T02:36:11.667Z,33.78
2023-10-03T02:38:39.031Z,35.30
2023-10-03T02:41:08.098Z,32.03
2023-10-03T02:43:44.832Z,35.05
2023-10-03T02:46:22.342Z,32.58
2023-10-03T02:48:51.733Z,34.35
2023-10-03T02:51:18.545Z,31.08
2023-10-03T02:53:47.391Z,35.90
2023-10-03T02:56:15.966Z,33.85
2023-10-03T02:58:43.722Z,33.72
2023-10-03T03:01:11.213Z,28.27
2023-10-03T03:03:39.669Z,30.05
2023-10-03T03:06:15.525Z,33.83
2023-10-03T03:08:46.160Z,26.10
2023-10-03T03:11:16.767Z,28.75
2023-10-03T03:13:43.538Z,28.58
2023-10-03T03:16:12.906Z,28.25
2023-10-03T03:18:44.702Z,27.20
2023-10-03T03:21:16.940Z,24.10
2023-10-03T03:23:50.900Z,26.52
2023-10-03T03:26:22.036Z,22.63
2023-10-03T03:28:51.711Z,22.15
2023-10-03T03:31:27.211Z,26.80
2023-10-03T03:33:58.211Z,21.17
2023-10-03T03:36:32.049Z,24.95
2023-10-03T03:39:15.311Z,22.75
2023-10-03T03:41:43.526Z,21.20
2023-10-03T03:44:13.890Z,17.33
2023-10-03T03:46:42.161Z,19.98
2023-10-03T03:49:09.934Z,17.23
2023-10-03T03:51:37.425Z,16.20
2023-10-03T03:54:06.786Z,21.15
2023-10-03T03:56:34.757Z,16.52
2023-10-03T03:59:01.602Z,18.73
2023-10-03T04:01:28.455Z,18.42
2023-10-03T04:03:59.327Z,16.00
2023-10-03T04:06:26.105Z,20.85
2023-10-03T04:09:07.040Z,15.10
2023-10-03T04:11:37.817Z,16.30
2023-10-03T04:14:07.557Z,13.73
2023-10-03T04:16:40.892Z,13.38
2023-10-03T04:19:09.943Z,13.18
2023-10-03T04:21:41.083Z,13.82
2023-10-03T04:24:10.617Z,14.07
2023-10-03T04:26:38.220Z,17.00
2023-10-03T04:29:05.251Z,13.40
2023-10-03T04:31:32.084Z,10.85
2023-10-03T04:33:58.713Z,13.52
2023-10-03T04:36:27.331Z,12.98
2023-10-03T04:38:54.714Z,14.20
2023-10-03T04:41:21.713Z,15.23
2023-10-03T04:43:51.138Z,16.65
2023-10-03T04:46:18.284Z,17.73
2023-10-03T04:48:45.075Z,12.68
2023-10-03T04:51:15.635Z,14.90
2023-10-03T04:53:42.330Z,12.10
2023-10-03T04:56:08.910Z,16.27
2023-10-03T04:58:35.579Z,17.20
2023-10-03T05:01:02.214Z,13.90
2023-10-03T05:03:29.797Z,17.25
2023-10-03T05:05:56.623Z,13.25
2023-10-03T05:08:23.291Z,14.75
2023-10-03T05:10:50.562Z,9.90
2023-10-03T05:13:18.116Z,13.85
2023-10-03T05:15:46.120Z,10.27
2023-10-03T05:18:12.997Z,13.77
2023-10-03T05:20:39.941Z,14.27
2023-10-03T05:23:07.530Z,13.40
2023-10-03T05:25:43.705Z,14.18
2023-10-03T05:28:13.666Z,13.80
2023-10-03T05:30:41.454Z,15.82
2023-10-03T05:33:08.921Z,10.63
2023-10-03T05:35:36.399Z,12.38
2023-10-03T05:38:10.245Z,16.08
2023-10-03T05:40:37.798Z,13.90
2023-10-03T05:43:06.347Z,12.32
2023-10-03T05:45:36.174Z,16.10
2023-10-03T05:48:04.579Z,16.17
2023-10-03T05:50:32.629Z,12.88
2023-10-03T05:53:00.720Z,13.73
2023-10-03T05:55:27.358Z,13.23
2023-10-03T05:57:54.594Z,12.57
2023-10-03T06:00:22.612Z,15.48
2023-10-03T06:02:51.151Z,12.07
2023-10-03T06:05:18.064Z,12.82
2023-10-03T06:07:46.385Z,14.25
2023-10-03T06:10:17.033Z,13.13
2023-10-03T06:12:43.970Z,15.52
2023-10-03T06:15:12.360Z,15.60
2023-10-03T06:17:39.010Z,9.90
2023-10-03T06:20:07.491Z,12.32
2023-10-03T06:22:34.538Z,11.63
2023-10-03T06:25:01.528Z,14.77
2023-10-03T06:27:28.483Z,12.90
2023-10-03T06:29:55.542Z,11.50
2023-10-03T06:32:22.482Z,6.65
2023-10-03T06:34:49.274Z,6.85
2023-10-03T06:37:16.467Z,11.13
2023-10-03T06:39:43.313Z,7.75
2023-10-03T06:42:10.239Z,10.68
2023-10-03T06:44:42.206Z,10.05
2023-10-03T06:47:10.299Z,8.95
2023-10-03T06:49:37.149Z,12.80
2023-10-03T06:52:05.302Z,12.05
2023-10-03T06:54:32.194Z,14.27
2023-10-03T06:56:59.010Z,16.90
2023-10-03T06:59:25.872Z,16.30
2023-10-03T07:01:52.517Z,16.02
2023-10-03T07:04:19.881Z,17.95
2023-10-03T07:06:47.195Z,12.10
2023-10-03T07:09:15.038Z,11.40
2023-10-03T07:11:41.886Z,15.13
2023-10-03T07:14:12.944Z,12.25
2023-10-03T07:16:41.187Z,13.18
2023-10-03T07:19:10.751Z,10.48
2023-10-03T07:21:38.744Z,13.65
2023-10-03T07:24:05.940Z,14.60
2023-10-03T07:26:33.396Z,15.00
2023-10-03T07:29:02.574Z,11.98
2023-10-03T07:31:33.417Z,11.75
2023-10-03T07:34:01.042Z,15.50
2023-10-03T07:36:28.284Z,13.20
2023-10-03T07:38:55.458Z,18.65
2023-10-03T07:41:22.900Z,13.98
2023-10-03T07:43:49.908Z,13.75
2023-10-03T07:46:21.931Z,14.02
2023-10-03T07:48:50.467Z,11.88
2023-10-03T07:51:17.807Z,15.35
2023-10-03T07:53:44.767Z,10.23
2023-10-03T07:56:47.674Z,12.43
2023-10-03T07:59:15.794Z,8.55
2023-10-03T08:01:59.739Z,6.25
2023-10-03T08:04:33.054Z,7.20
2023-10-03T08:07:00.446Z,7.57
2023-10-03T08:09:27.125Z,8.50
2023-10-03T08:11:53.916Z,7.57
2023-10-03T08:14:20.448Z,4.78
2023-10-03T08:16:48.393Z,6.75
2023-10-03T08:19:26.196Z,5.82
2023-10-03T08:21:54.416Z,6.55
2023-10-03T08:24:29.769Z,8.43
2023-10-03T08:27:00.717Z,8.15
2023-10-03T08:29:29.017Z,7.07
2023-10-03T08:32:00.482Z,3.88
2023-10-03T08:34:31.552Z,5.45
2023-10-03T08:37:02.867Z,3.40
2023-10-03T08:39:33.822Z,1.33
2023-10-03T08:42:14.884Z,2.53
2023-10-03T08:44:56.334Z,4.47
2023-10-03T08:47:30.234Z,5.22
2023-10-03T08:50:30.507Z,3.08
2023-10-03T08:52:57.618Z,4.38
2023-10-03T08:55:27.674Z,3.53
2023-10-03T08:57:54.844Z,3.53
2023-10-03T09:00:27.144Z,3.70
2023-10-03T09:03:10.917Z,3.33
2023-10-03T09:05:41.225Z,3.63
2023-10-03T09:08:09.634Z,8.93
2023-10-03T09:10:52.130Z,4.97
2023-10-03T09:13:29.767Z,7.63
2023-10-03T09:16:02.738Z,7.90
2023-10-03T09:18:43.906Z,3.55
2023-10-03T09:21:25.923Z,5.07
2023-10-03T09:24:00.624Z,4.73
2023-10-03T09:26:35.107Z,3.15
2023-10-03T09:29:09.117Z,7.60
2023-10-03T09:31:36.883Z,5.53
2023-10-03T09:34:03.660Z,2.50
2023-10-03T09:36:31.025Z,5.95
2023-10-03T09:38:57.594Z,5.25
2023-10-03T09:41:25.670Z,3.20
2023-10-03T09:43:56.326Z,9.35
2023-10-03T09:46:42.464Z,7.40
2023-10-03T09:49:12.290Z,7.30
2023-10-03T09:51:48.101Z,3.25
2023-10-03T09:54:25.851Z,5.65
2023-10-03T09:56:56.620Z,9.82
2023-10-03T09:59:25.604Z,4.65
2023-10-03T10:01:56.494Z,4.68
2023-10-03T10:04:26.084Z,8.55
2023-10-03T10:07:17.930Z,2.58
2023-10-03T10:10:02.177Z,5.07
2023-10-03T10:12:29.889Z,2.33
2023-10-03T10:15:12.060Z,2.47
2023-10-03T10:17:57.101Z,2.45
2023-10-03T10:20:28.721Z,2.00
2023-10-03T10:23:02.993Z,3.75
2023-10-03T10:25:31.974Z,2.42
2023-10-03T10:28:06.617Z,4.50
2023-10-03T10:30:34.119Z,3.45
2023-10-03T10:33:24.632Z,4.72
2023-10-03T10:35:56.410Z,1.85
2023-10-03T10:38:43.340Z,5.88
2023-10-03T10:41:13.331Z,3.53
2023-10-03T10:44:11.117Z,3.33
2023-10-03T10:46:40.334Z,2.75
2023-10-03T10:49:35.019Z,3.60
2023-10-03T10:52:02.835Z,4.90
2023-10-03T10:54:29.807Z,6.20
2023-10-03T10:57:07.095Z,4.47
2023-10-03T10:59:41.875Z,3.20
2023-10-03T11:02:15.977Z,7.38
2023-10-03T11:04:42.841Z,5.10
2023-10-03T11:07:09.517Z,2.35
2023-10-03T11:09:39.640Z,3.80
2023-10-03T11:12:08.096Z,7.15
2023-10-03T11:14:35.211Z,4.00
2023-10-03T11:17:04.224Z,4.15
2023-10-03T11:19:33.106Z,3.38
2023-10-03T11:21:59.939Z,8.48
2023-10-03T11:24:28.516Z,5.45
2023-10-03T11:26:58.492Z,4.68
2023-10-03T11:29:47.978Z,6.40
2023-10-03T11:32:24.930Z,4.70
2023-10-03T11:34:56.304Z,4.65
2023-10-03T11:37:38.224Z,5.22
2023-10-03T11:40:19.709Z,7.13
2023-10-03T11:42:51.230Z,6.30
2023-10-03T11:45:20.426Z,6.63
2023-10-03T11:48:09.151Z,9.23
2023-10-03T11:50:40.832Z,6.00
2023-10-03T11:53:10.124Z,7.10
2023-10-03T11:55:37.782Z,4.70
2023-10-03T11:58:07.075Z,7.60
2023-10-03T12:00:34.771Z,7.43
2023-10-03T12:03:04.056Z,9.60
2023-10-03T12:05:30.998Z,9.13
2023-10-03T12:08:00.649Z,6.65
2023-10-03T12:10:27.701Z,8.50
2023-10-03T12:12:54.499Z,11.05
2023-10-03T12:15:24.867Z,10.13
2023-10-03T12:17:52.282Z,8.45
2023-10-03T12:20:20.639Z,9.38
2023-10-03T12:22:50.767Z,7.82
2023-10-03T12:25:19.586Z,8.50
2023-10-03T12:27:46.525Z,7.93
2023-10-03T12:30:16.429Z,10.30
2023-10-03T12:32:48.884Z,8.68
2023-10-03T12:35:17.158Z,8.75
2023-10-03T12:37:48.601Z,6.78
2023-10-03T12:40:20.528Z,6.03
2023-10-03T12:42:48.588Z,5.25
2023-10-03T12:45:18.415Z,7.50
2023-10-03T12:47:50.437Z,8.30
2023-10-03T12:50:28.899Z,7.25
2023-10-03T12:52:57.352Z,7.05
2023-10-03T12:55:26.529Z,8.60
2023-10-03T12:57:55.451Z,6.97
2023-10-03T13:00:22.442Z,8.60
2023-10-03T13:02:50.501Z,6.88
2023-10-03T13:05:18.575Z,7.82
2023-10-03T13:07:49.178Z,11.30
2023-10-03T13:10:20.172Z,6.95
2023-10-03T13:12:49.778Z,7.88
2023-10-03T13:15:19.409Z,12.70
2023-10-03T13:17:49.296Z,9.68
2023-10-03T13:20:19.227Z,6.70
2023-10-03T13:22:48.425Z,7.50
2023-10-03T13:25:21.608Z,7.93
2023-10-03T13:27:49.490Z,8.32
2023-10-03T13:30:20.414Z,6.57
2023-10-03T13:32:51.421Z,9.15
2023-10-03T13:35:21.670Z,6.18
2023-10-03T13:37:52.692Z,8.45
2023-10-03T13:40:20.180Z,5.63
2023-10-03T13:42:49.058Z,8.10
2023-10-03T13:45:17.077Z,11.70
2023-10-03T13:47:46.378Z,12.70
2023-10-03T13:50:14.470Z,9.40
2023-10-03T13:52:42.217Z,7.22
2023-10-03T13:55:13.021Z,9.18
2023-10-03T13:57:43.634Z,5.93
2023-10-03T14:00:14.461Z,13.18
2023-10-03T14:02:52.404Z,18.58
2023-10-03T14:05:27.113Z,10.27
2023-10-03T14:07:53.697Z,9.65
2023-10-03T14:10:23.232Z,7.80
2023-10-03T14:12:50.240Z,7.65
2023-10-03T14:15:21.923Z,8.63
2023-10-03T14:17:49.719Z,6.15
2023-10-03T14:20:17.555Z,3.28
2023-10-03T14:22:44.500Z,5.75
2023-10-03T14:25:13.674Z,2.78
2023-10-03T14:27:43.016Z,3.40
2023-10-03T14:30:11.546Z,4.60
2023-10-03T14:32:39.270Z,4.15
2023-10-03T14:35:09.011Z,3.40
2023-10-03T14:37:37.054Z,5.70
2023-10-03T14:40:10.361Z,5.13
2023-10-03T14:42:38.125Z,4.60
2023-10-03T14:45:05.749Z,7.15
2023-10-03T14:47:33.001Z,6.68
2023-10-03T14:49:59.657Z,6.63
2023-10-03T14:52:26.527Z,7.25
2023-10-03T14:54:53.190Z,11.70
2023-10-03T14:57:19.823Z,7.03
2023-10-03T14:59:46.503Z,9.27
2023-10-03T15:02:14.563Z,8.18
2023-10-03T15:04:43.527Z,6.35
2023-10-03T15:07:12.214Z,4.88
2023-10-03T15:09:40.734Z,6.82
2023-10-03T15:12:07.706Z,6.85
2023-10-03T15:14:34.434Z,4.85
2023-10-03T15:17:02.337Z,8.43
2023-10-03T15:19:29.029Z,7.70
2023-10-03T15:21:57.485Z,6.82
2023-10-03T15:24:24.275Z,9.75
2023-10-03T15:26:50.868Z,6.28
2023-10-03T15:29:17.902Z,5.72
2023-10-03T15:31:46.166Z,7.18
2023-10-03T15:34:12.944Z,5.85
2023-10-03T15:36:39.770Z,6.10
2023-10-03T15:39:09.610Z,9.27
2023-10-03T15:41:39.156Z,7.57
2023-10-03T15:44:05.972Z,10.15
2023-10-03T15:46:35.825Z,6.38
2023-10-03T15:49:03.085Z,6.10
2023-10-03T15:51:29.969Z,8.65
2023-10-03T15:53:56.608Z,8.10
2023-10-03T15:56:24.360Z,8.90
2023-10-03T15:58:50.984Z,5.45
2023-10-03T16:01:18.214Z,9.85
2023-10-03T16:03:46.759Z,6.57
2023-10-03T16:06:13.860Z,5.88
2023-10-03T16:08:45.322Z,9.35
2023-10-03T16:11:13.828Z,7.07
2023-10-03T16:13:40.512Z,9.10
2023-10-03T16:16:07.903Z,6.20
2023-10-03T16:18:35.115Z,9.57
2023-10-03T16:21:02.403Z,6.95
2023-10-03T16:23:29.187Z,9.65
2023-10-03T16:25:56.027Z,8.50
2023-10-03T16:28:22.651Z,8.00
2023-10-03T16:30:49.849Z,10.80
2023-10-03T16:33:16.724Z,9.23
2023-10-03T16:35:43.438Z,8.52
2023-10-03T16:38:10.019Z,8.55
2023-10-03T16:40:36.759Z,9.45
2023-10-03T16:43:03.492Z,5.65
2023-10-03T16:45:31.661Z,9.10
2023-10-03T16:47:58.339Z,12.38
2023-10-03T16:50:25.542Z,8.27
2023-10-03T16:52:52.592Z,12.57
2023-10-03T16:55:20.312Z,15.90
2023-10-03T16:57:47.465Z,7.85
2023-10-03T17:00:14.829Z,11.57
2023-10-03T17:02:42.575Z,6.97
2023-10-03T17:05:10.637Z,8.88
2023-10-03T17:07:41.307Z,7.68
2023-10-03T17:10:13.644Z,7.25
2023-10-03T17:12:40.536Z,8.88
2023-10-03T17:15:11.413Z,6.78
2023-10-03T17:17:42.775Z,7.80
2023-10-03T17:20:16.221Z,6.68
2023-10-03T17:25:11.565Z,7.22
2023-10-03T17:27:40.601Z,7.25
2023-10-03T17:30:09.680Z,6.18
2023-10-03T17:32:36.546Z,9.13
2023-10-03T17:35:06.552Z,8.98
2023-10-03T17:37:33.353Z,7.50
2023-10-03T17:40:00.451Z,8.10
2023-10-03T17:42:30.269Z,6.05
2023-10-03T17:44:57.413Z,8.55
2023-10-03T17:47:24.780Z,11.18
2023-10-03T17:49:53.540Z,8.68
2023-10-03T17:52:22.709Z,7.03
2023-10-03T17:54:49.619Z,11.95
2023-10-03T17:57:16.406Z,10.00
2023-10-03T17:59:50.146Z,7.65
2023-10-03T18:02:20.089Z,7.45
2023-10-03T18:04:47.683Z,11.50
2023-10-03T18:07:14.866Z,9.45
2023-10-03T18:09:42.188Z,9.75
2023-10-03T18:12:08.893Z,5.70
2023-10-03T18:14:35.532Z,8.57
2023-10-03T18:17:04.532Z,12.90
2023-10-03T18:19:31.240Z,19.42
2023-10-03T18:22:00.718Z,12.80
2023-10-03T18:24:28.474Z,15.50
2023-10-03T18:26:55.457Z,16.92
2023-10-03T18:29:22.187Z,16.35
2023-10-03T18:31:48.879Z,14.73
2023-10-03T18:34:15.551Z,15.82
2023-10-03T18:36:42.764Z,13.65
2023-10-03T18:39:10.005Z,13.82
2023-10-03T18:41:36.848Z,15.50
2023-10-03T18:44:03.881Z,10.68
2023-10-03T18:46:30.854Z,10.43
2023-10-03T18:48:58.207Z,9.90
2023-10-03T18:51:24.913Z,11.63
2023-10-03T18:53:51.929Z,10.15
2023-10-03T18:56:19.164Z,6.63
2023-10-03T18:58:45.792Z,10.98
2023-10-03T19:01:25.528Z,8.20
2023-10-03T19:03:58.066Z,11.00
2023-10-03T19:06:25.375Z,7.57
2023-10-03T19:08:53.252Z,8.00
2023-10-03T19:11:21.229Z,7.82
2023-10-03T19:13:47.842Z,7.82
2023-10-03T19:16:19.551Z,5.80
2023-10-03T19:18:47.187Z,9.48
2023-10-03T19:21:13.823Z,8.02
2023-10-03T19:23:41.600Z,7.70
2023-10-03T19:26:09.022Z,6.78
2023-10-03T19:28:39.263Z,7.60
2023-10-03T19:31:12.943Z,8.75
2023-10-03T19:33:41.659Z,8.13
2023-10-03T19:36:12.543Z,6.13
2023-10-03T19:38:39.593Z,9.50
2023-10-03T19:41:13.166Z,6.10
2023-10-03T19:43:41.146Z,9.15
2023-10-03T19:46:11.176Z,8.38
2023-10-03T19:48:37.897Z,9.57
2023-10-03T19:51:07.669Z,9.05
2023-10-03T19:53:34.917Z,8.25
2023-10-03T19:56:12.060Z,10.07
2023-10-03T19:58:47.976Z,9.38
2023-10-03T20:01:47.375Z,14.55
2023-10-03T20:04:14.707Z,6.13
2023-10-03T20:06:43.505Z,8.45
2023-10-03T20:09:13.704Z,9.13
2023-10-03T20:11:46.348Z,9.98
2023-10-03T20:14:13.385Z,9.82
2023-10-03T20:16:40.357Z,7.57
2023-10-03T20:19:08.156Z,6.68
2023-10-03T20:21:35.258Z,8.65
2023-10-03T20:24:02.135Z,12.30
2023-10-03T20:26:31.651Z,9.63
2023-10-03T20:28:59.088Z,9.93
2023-10-03T20:31:25.739Z,6.85
2023-10-03T20:33:52.736Z,7.55
2023-10-03T20:36:19.568Z,8.48
2023-10-03T20:38:46.195Z,8.32
2023-10-03T20:41:17.035Z,9.90
2023-10-03T20:43:43.980Z,9.82
2023-10-03T20:46:16.606Z,9.25
2023-10-03T20:48:44.077Z,8.38
2023-10-03T20:51:31.093Z,8.57
2023-10-03T20:53:59.210Z,9.32
2023-10-03T20:56:26.034Z,8.95
2023-10-03T20:58:55.817Z,7.93
2023-10-03T21:01:22.491Z,10.95
2023-10-03T21:03:50.613Z,8.02
2023-10-03T21:06:17.849Z,8.85
2023-10-03T21:08:44.785Z,11.95
2023-10-03T21:11:17.123Z,10.85
2023-10-03T21:13:44.431Z,10.15
2023-10-03T21:16:11.320Z,13.07
2023-10-03T21:18:38.044Z,7.78
2023-10-03T21:21:04.876Z,10.65
2023-10-03T21:23:32.750Z,12.65
2023-10-03T21:26:08.996Z,12.63
2023-10-03T21:28:36.312Z,7.85
2023-10-03T21:31:05.802Z,9.52
2023-10-03T21:33:32.926Z,10.50
2023-10-03T21:36:02.502Z,12.07
2023-10-03T21:38:29.883Z,10.77
2023-10-03T21:40:56.522Z,11.45
2023-10-03T21:43:23.144Z,10.40
2023-10-03T21:45:52.178Z,11.80
2023-10-03T21:48:19.196Z,12.98
2023-10-03T21:50:46.231Z,9.15
2023-10-03T21:53:13.463Z,8.20
2023-10-03T21:55:45.525Z,9.02
2023-10-03T21:58:12.337Z,14.25
2023-10-03T22:00:40.339Z,9.48
2023-10-03T22:03:07.471Z,10.57
2023-10-03T22:05:34.121Z,12.90
2023-10-03T22:08:01.979Z,15.55
2023-10-03T22:10:31.112Z,14.98
2023-10-03T22:12:58.455Z,9.05
2023-10-03T22:15:25.625Z,8.07
2023-10-03T22:17:52.759Z,10.80
2023-10-03T22:20:19.910Z,9.80
2023-10-03T22:22:46.528Z,12.32
2023-10-03T22:25:13.626Z,10.05
2023-10-03T22:27:40.972Z,13.02
2023-10-03T22:30:10.086Z,11.95
2023-10-03T22:32:36.900Z,11.05
2023-10-03T22:35:03.752Z,13.82
2023-10-03T22:37:30.504Z,12.43
2023-10-03T22:39:57.352Z,9.15
2023-10-03T22:42:24.147Z,9.07
2023-10-03T22:44:50.846Z,10.35
2023-10-03T22:47:17.535Z,13.23
2023-10-03T22:49:44.386Z,11.55
2023-10-03T22:52:11.152Z,10.18
2023-10-03T22:54:37.891Z,17.67
2023-10-03T22:57:04.698Z,12.65
2023-10-03T22:59:31.317Z,13.05
2023-10-03T23:01:57.925Z,15.48
2023-10-03T23:04:24.518Z,10.02
2023-10-03T23:06:51.423Z,12.05
2023-10-03T23:09:18.335Z,8.50
2023-10-03T23:11:45.115Z,16.60
2023-10-03T23:14:12.212Z,10.65
2023-10-03T23:16:38.994Z,9.38
2023-10-03T23:19:07.180Z,13.15
2023-10-03T23:21:34.317Z,11.20
2023-10-03T23:24:01.446Z,13.93
2023-10-03T23:26:28.398Z,11.68
2023-10-03T23:28:54.926Z,11.23
2023-10-03T23:31:21.632Z,14.68
2023-10-03T23:33:48.486Z,8.60
2023-10-03T23:36:15.612Z,10.05
2023-10-03T23:38:43.038Z,13.25
2023-10-03T23:41:11.378Z,13.18
2023-10-03T23:43:38.693Z,7.05
2023-10-03T23:46:08.028Z,13.77
2023-10-03T23:48:36.601Z,12.23
2023-10-03T23:51:04.340Z,9.93
2023-10-03T23:53:31.449Z,9.90
2023-10-03T23:55:59.637Z,8.80
2023-10-03T23:58:26.538Z,15.85
